createdAt,value
2019-05-02T00:00:09.318Z,12.0
2019-05-02T00:01:54.061Z,12.1
2019-05-02T00:02:29.996Z,12.1
2019-05-02T00:03:04.350Z,12.1
2019-05-02T00:03:41.022Z,12.1
2019-05-02T00:04:18.378Z,12.1
2019-05-02T00:05:21.699Z,12.2
2019-05-02T00:05:56.790Z,12.2
2019-05-02T00:06:32.482Z,12.2
2019-05-02T00:07:08.119Z,12.2
2019-05-02T00:07:44.295Z,12.3
2019-05-02T00:08:53.999Z,12.3
2019-05-02T00:09:29.139Z,12.3
2019-05-02T00:10:04.294Z,12.3
2019-05-02T00:10:39.414Z,12.3
2019-05-02T00:11:13.996Z,12.3
2019-05-02T00:12:24.273Z,12.4
2019-05-02T00:12:59.901Z,12.4
2019-05-02T00:13:35.554Z,12.4
2019-05-02T00:14:11.772Z,12.4
2019-05-02T00:15:23.556Z,12.4
2019-05-02T00:15:59.811Z,12.4
2019-05-02T00:16:35.380Z,12.4
2019-05-02T00:17:11.552Z,12.4
2019-05-02T00:18:23.406Z,12.4
2019-05-02T00:18:59.556Z,12.4
2019-05-02T00:19:35.767Z,12.4
2019-05-02T00:20:11.382Z,12.4
2019-05-02T00:21:23.730Z,12.4
2019-05-02T00:21:59.529Z,12.4
2019-05-02T00:22:35.561Z,12.4
2019-05-02T00:23:11.757Z,12.4
2019-05-02T00:24:23.568Z,12.4
2019-05-02T00:24:59.233Z,12.5
2019-05-02T00:25:34.350Z,12.5
2019-05-02T00:26:08.961Z,12.5
2019-05-02T00:26:43.632Z,12.5
2019-05-02T00:27:52.755Z,12.4
2019-05-02T00:29:03.582Z,12.4
2019-05-02T00:29:39.196Z,12.4
2019-05-02T00:30:14.850Z,12.4
2019-05-02T00:31:25.123Z,12.3
2019-05-02T00:32:00.220Z,12.3
2019-05-02T00:32:35.371Z,12.3
2019-05-02T00:33:10.502Z,12.2
2019-05-02T00:34:22.333Z,12.2
2019-05-02T00:34:57.969Z,12.1
2019-05-02T00:35:32.026Z,12.1
2019-05-02T00:36:06.626Z,12.1
2019-05-02T00:36:41.277Z,12.1
2019-05-02T00:37:51.508Z,12.1
2019-05-02T00:38:26.626Z,12.0
2019-05-02T00:39:02.826Z,12.0
2019-05-02T00:39:38.450Z,12.0
2019-05-02T00:40:14.631Z,12.0
2019-05-02T00:41:26.502Z,12.0
2019-05-02T00:42:12.287Z,12.0
2019-05-02T00:42:37.247Z,11.9
2019-05-02T00:43:11.877Z,11.9
2019-05-02T00:44:55.645Z,11.9
2019-05-02T00:45:30.252Z,11.9
2019-05-02T00:46:04.867Z,11.9
2019-05-02T00:46:39.466Z,11.8
2019-05-02T00:47:15.136Z,11.8
2019-05-02T00:48:26.434Z,11.8
2019-05-02T00:49:03.688Z,11.8
2019-05-02T00:49:38.208Z,11.8
2019-05-02T00:50:13.902Z,11.8
2019-05-02T00:51:26.659Z,11.8
2019-05-02T00:52:03.122Z,11.8
2019-05-02T00:52:38.075Z,11.8
2019-05-02T00:53:13.736Z,11.8
2019-05-02T00:54:25.440Z,11.7
2019-05-02T00:55:00.150Z,11.7
2019-05-02T00:55:35.555Z,11.7
2019-05-02T00:56:10.363Z,11.7
2019-05-02T00:56:45.368Z,11.7
2019-05-02T00:57:55.599Z,11.7
2019-05-02T00:58:31.856Z,11.7
2019-05-02T00:59:07.322Z,11.7
2019-05-02T00:59:42.352Z,11.7
2019-05-02T01:00:18.153Z,11.7
2019-05-02T01:01:24.207Z,11.7
2019-05-02T01:01:59.923Z,11.7
2019-05-02T01:02:31.023Z,11.7
2019-05-02T01:03:05.636Z,11.6
2019-05-02T01:03:41.319Z,11.6
2019-05-02T01:04:52.595Z,11.6
2019-05-02T01:05:28.297Z,11.6
2019-05-02T01:06:03.894Z,11.6
2019-05-02T01:06:39.538Z,11.6
2019-05-02T01:07:15.201Z,11.6
2019-05-02T01:08:26.501Z,11.5
2019-05-02T01:09:05.759Z,11.5
2019-05-02T01:09:36.239Z,11.5
2019-05-02T01:10:10.857Z,11.5
2019-05-02T01:11:54.847Z,11.5
2019-05-02T01:12:29.283Z,11.5
2019-05-02T01:13:03.922Z,11.4
2019-05-02T01:13:39.507Z,11.4
2019-05-02T01:14:15.181Z,11.4
2019-05-02T01:15:25.946Z,11.4
2019-05-02T01:16:01.580Z,11.4
2019-05-02T01:16:38.303Z,11.4
2019-05-02T01:17:12.942Z,11.4
2019-05-02T01:18:24.752Z,11.4
2019-05-02T01:19:00.370Z,11.4
2019-05-02T01:19:36.027Z,11.4
2019-05-02T01:20:11.693Z,11.4
2019-05-02T01:21:22.966Z,11.4
2019-05-02T01:21:58.658Z,11.4
2019-05-02T01:22:34.297Z,11.4
2019-05-02T01:23:09.408Z,11.4
2019-05-02T01:23:45.081Z,11.4
2019-05-02T01:24:56.369Z,11.4
2019-05-02T01:25:32.533Z,11.4
2019-05-02T01:26:08.219Z,11.4
2019-05-02T01:26:43.861Z,11.4
2019-05-02T01:27:54.092Z,11.5
2019-05-02T01:28:29.411Z,11.5
2019-05-02T01:29:04.342Z,11.5
2019-05-02T01:29:38.981Z,11.5
2019-05-02T01:30:14.071Z,11.5
2019-05-02T01:31:25.393Z,11.4
2019-05-02T01:32:01.026Z,11.5
2019-05-02T01:32:36.149Z,11.5
2019-05-02T01:33:11.275Z,11.5
2019-05-02T01:33:46.408Z,11.5
2019-05-02T01:34:56.368Z,11.4
2019-05-02T01:35:32.746Z,11.4
2019-05-02T01:36:08.220Z,11.4
2019-05-02T01:36:44.148Z,11.4
2019-05-02T01:37:56.116Z,11.4
2019-05-02T01:38:33.666Z,11.4
2019-05-02T01:39:08.723Z,11.4
2019-05-02T01:39:44.121Z,11.4
2019-05-02T01:40:56.354Z,11.3
2019-05-02T01:41:31.061Z,11.3
2019-05-02T01:42:06.114Z,11.3
2019-05-02T01:42:44.389Z,11.3
2019-05-02T01:43:19.763Z,11.3
2019-05-02T01:43:54.822Z,11.3
2019-05-02T01:44:26.050Z,11.3
2019-05-02T01:45:01.166Z,11.2
2019-05-02T01:45:37.379Z,11.2
2019-05-02T01:46:16.913Z,11.2
2019-05-02T01:47:29.031Z,11.2
2019-05-02T01:48:40.007Z,11.2
2019-05-02T01:49:16.789Z,11.2
2019-05-02T01:50:28.832Z,11.2
2019-05-02T01:51:04.245Z,11.2
2019-05-02T01:51:37.073Z,11.2
2019-05-02T01:52:13.181Z,11.1
2019-05-02T01:53:22.923Z,11.1
2019-05-02T01:53:59.225Z,11.1
2019-05-02T01:54:33.161Z,11.1
2019-05-02T01:55:08.288Z,11.1
2019-05-02T01:55:42.933Z,11.1
2019-05-02T01:56:18.052Z,11.1
2019-05-02T01:56:53.143Z,11.1
2019-05-02T01:57:28.276Z,11.1
2019-05-02T01:58:03.405Z,11.1
2019-05-02T01:58:37.520Z,11.1
2019-05-02T01:59:12.122Z,11.1
2019-05-02T01:59:46.695Z,11.1
2019-05-02T02:00:21.295Z,11.1
2019-05-02T02:00:55.895Z,11.1
2019-05-02T02:01:30.502Z,11.0
2019-05-02T02:02:06.166Z,11.0
2019-05-02T02:02:41.812Z,11.0
2019-05-02T02:03:53.131Z,11.0
2019-05-02T02:05:04.407Z,11.0
2019-05-02T02:05:40.077Z,11.0
2019-05-02T02:06:15.210Z,10.9
2019-05-02T02:07:24.430Z,10.9
2019-05-02T02:07:59.006Z,10.9
2019-05-02T02:08:33.956Z,10.9
2019-05-02T02:09:09.662Z,10.9
2019-05-02T02:09:43.881Z,11.0
2019-05-02T02:10:56.034Z,11.0
2019-05-02T02:11:33.717Z,11.0
2019-05-02T02:12:09.681Z,11.0
2019-05-02T02:12:56.466Z,11.0
2019-05-02T02:13:16.775Z,11.0
2019-05-02T02:13:52.370Z,11.0
2019-05-02T02:14:27.482Z,11.0
2019-05-02T02:15:03.138Z,11.0
2019-05-02T02:15:38.937Z,11.0
2019-05-02T02:16:14.447Z,11.0
2019-05-02T02:17:25.748Z,11.0
2019-05-02T02:18:01.406Z,11.0
2019-05-02T02:18:37.062Z,11.0
2019-05-02T02:19:12.708Z,10.9
2019-05-02T02:19:47.308Z,10.9
2019-05-02T02:20:21.941Z,10.9
2019-05-02T02:20:56.519Z,10.9
2019-05-02T02:21:31.125Z,10.9
2019-05-02T02:22:05.189Z,10.9
2019-05-02T02:22:41.069Z,10.9
2019-05-02T02:23:15.256Z,10.9
2019-05-02T02:24:25.075Z,10.9
2019-05-02T02:25:00.923Z,10.9
2019-05-02T02:25:36.145Z,10.8
2019-05-02T02:26:11.872Z,10.8
2019-05-02T02:26:48.129Z,10.8
2019-05-02T02:27:59.554Z,10.8
2019-05-02T02:28:32.215Z,10.8
2019-05-02T02:29:07.751Z,10.7
2019-05-02T02:29:43.921Z,10.7
2019-05-02T02:30:17.479Z,10.7
2019-05-02T02:31:25.133Z,10.7
2019-05-02T02:31:59.733Z,10.7
2019-05-02T02:32:34.373Z,10.7
2019-05-02T02:33:47.559Z,10.7
2019-05-02T02:34:52.760Z,10.7
2019-05-02T02:35:26.836Z,10.7
2019-05-02T02:36:01.993Z,10.7
2019-05-02T02:36:36.040Z,10.7
2019-05-02T02:37:12.326Z,10.7
2019-05-02T02:37:51.770Z,10.7
2019-05-02T02:38:54.972Z,10.7
2019-05-02T02:39:29.603Z,10.6
2019-05-02T02:40:05.249Z,10.6
2019-05-02T02:40:41.421Z,10.6
2019-05-02T02:41:17.136Z,10.6
2019-05-02T02:41:54.010Z,10.6
2019-05-02T02:42:31.510Z,10.6
2019-05-02T02:43:10.049Z,10.6
2019-05-02T02:43:39.179Z,10.6
2019-05-02T02:44:14.801Z,10.6
2019-05-02T02:45:26.615Z,10.6
2019-05-02T02:46:02.298Z,10.6
2019-05-02T02:46:40.055Z,10.6
2019-05-02T02:47:18.699Z,10.6
2019-05-02T02:48:25.950Z,10.5
2019-05-02T02:49:01.230Z,10.5
2019-05-02T02:49:36.183Z,10.5
2019-05-02T02:50:10.786Z,10.5
2019-05-02T02:50:45.420Z,10.5
2019-05-02T02:51:57.780Z,10.5
2019-05-02T02:53:05.409Z,10.5
2019-05-02T02:53:39.986Z,10.5
2019-05-02T02:54:14.591Z,10.4
2019-05-02T02:55:25.912Z,10.4
2019-05-02T02:56:03.721Z,10.4
2019-05-02T02:56:40.383Z,10.4
2019-05-02T02:58:23.115Z,10.3
2019-05-02T02:58:57.749Z,10.3
2019-05-02T02:59:32.311Z,10.3
2019-05-02T03:00:08.197Z,10.3
2019-05-02T03:00:47.263Z,10.3
2019-05-02T03:01:26.864Z,10.3
2019-05-02T03:01:51.775Z,10.3
2019-05-02T03:02:26.932Z,10.2
2019-05-02T03:03:02.532Z,10.2
2019-05-02T03:03:38.735Z,10.2
2019-05-02T03:04:14.883Z,10.3
2019-05-02T03:05:25.837Z,10.3
2019-05-02T03:06:05.331Z,10.3
2019-05-02T03:06:38.187Z,10.3
2019-05-02T03:07:09.491Z,10.2
2019-05-02T03:07:45.287Z,10.2
2019-05-02T03:08:21.294Z,10.2
2019-05-02T03:08:57.484Z,10.2
2019-05-02T03:09:33.162Z,10.2
2019-05-02T03:10:09.325Z,10.2
2019-05-02T03:10:46.611Z,10.2
2019-05-02T03:12:01.932Z,10.2
2019-05-02T03:12:36.079Z,10.2
2019-05-02T03:13:14.788Z,10.2
2019-05-02T03:13:52.217Z,10.2
2019-05-02T03:14:53.993Z,10.1
2019-05-02T03:15:29.676Z,10.1
2019-05-02T03:16:06.776Z,10.1
2019-05-02T03:16:45.557Z,10.1
2019-05-02T03:17:12.402Z,10.1
2019-05-02T03:17:47.005Z,10.1
2019-05-02T03:18:21.631Z,10.1
2019-05-02T03:18:56.361Z,10.1
2019-05-02T03:20:05.447Z,10.1
2019-05-02T03:20:40.501Z,10.1
2019-05-02T03:22:23.825Z,10.1
2019-05-02T03:23:33.068Z,10.0
2019-05-02T03:24:08.699Z,10.0
2019-05-02T03:24:46.638Z,10.0
2019-05-02T03:25:55.634Z,10.0
2019-05-02T03:26:31.318Z,10.0
2019-05-02T03:27:06.454Z,10.0
2019-05-02T03:27:42.082Z,10.0
2019-05-02T03:28:18.393Z,10.0
2019-05-02T03:28:58.334Z,10.0
2019-05-02T03:29:39.075Z,10.0
2019-05-02T03:30:04.681Z,10.0
2019-05-02T03:30:40.359Z,10.0
2019-05-02T03:31:23.364Z,10.0
2019-05-02T03:32:11.343Z,10.0
2019-05-02T03:32:34.008Z,9.9
2019-05-02T03:33:09.393Z,9.9
2019-05-02T03:33:51.152Z,9.9
2019-05-02T03:34:10.575Z,9.9
2019-05-02T03:34:46.960Z,9.9
2019-05-02T03:35:54.459Z,9.9
2019-05-02T03:36:34.845Z,9.9
2019-05-02T03:37:38.198Z,9.8
2019-05-02T03:38:13.874Z,9.8
2019-05-02T03:39:25.143Z,9.8
2019-05-02T03:40:00.902Z,9.8
2019-05-02T03:40:38.803Z,9.8
2019-05-02T03:41:13.053Z,9.8
2019-05-02T03:41:47.229Z,9.8
2019-05-02T03:42:22.920Z,9.8
2019-05-02T03:42:58.563Z,9.8
2019-05-02T03:43:34.177Z,9.8
2019-05-02T03:44:11.764Z,9.8
2019-05-02T03:44:54.566Z,9.8
2019-05-02T03:45:56.814Z,9.8
2019-05-02T03:47:07.566Z,9.8
2019-05-02T03:47:46.110Z,9.8
2019-05-02T03:48:25.306Z,9.7
2019-05-02T03:49:05.324Z,9.7
2019-05-02T03:49:28.099Z,9.7
2019-05-02T03:50:02.690Z,9.7
2019-05-02T03:50:37.289Z,9.7
2019-05-02T03:51:19.077Z,9.7
2019-05-02T03:51:46.496Z,9.7
2019-05-02T03:52:55.705Z,9.7
2019-05-02T03:54:07.131Z,9.7
2019-05-02T03:54:48.252Z,9.7
2019-05-02T03:55:14.120Z,9.7
2019-05-02T03:55:48.740Z,9.7
2019-05-02T03:56:23.309Z,9.7
2019-05-02T03:56:57.919Z,9.7
2019-05-02T03:58:13.964Z,9.6
2019-05-02T03:58:48.270Z,9.6
2019-05-02T03:59:55.133Z,9.6
2019-05-02T04:00:30.262Z,9.6
2019-05-02T04:01:05.900Z,9.6
2019-05-02T04:01:43.014Z,9.5
2019-05-02T04:02:20.254Z,9.5
2019-05-02T04:02:58.888Z,9.5
2019-05-02T04:03:26.443Z,9.5
2019-05-02T04:04:01.539Z,9.5
2019-05-02T04:04:36.675Z,9.5
2019-05-02T04:05:11.784Z,9.5
2019-05-02T04:05:46.392Z,9.5
2019-05-02T04:06:23.641Z,9.5
2019-05-02T04:07:00.949Z,9.5
2019-05-02T04:07:39.298Z,9.6
2019-05-02T04:08:07.431Z,9.6
2019-05-02T04:08:43.595Z,9.6
2019-05-02T04:10:31.083Z,9.6
2019-05-02T04:11:06.747Z,9.6
2019-05-02T04:11:42.393Z,9.6
2019-05-02T04:12:21.182Z,9.6
2019-05-02T04:12:58.319Z,9.6
2019-05-02T04:13:29.968Z,9.6
2019-05-02T04:14:14.571Z,9.5
2019-05-02T04:14:39.776Z,9.5
2019-05-02T04:15:14.208Z,9.5
2019-05-02T04:15:48.843Z,9.6
2019-05-02T04:16:23.959Z,9.6
2019-05-02T04:16:59.577Z,9.5
2019-05-02T04:17:35.192Z,9.5
2019-05-02T04:18:15.154Z,9.5
2019-05-02T04:18:54.358Z,9.5
2019-05-02T04:19:19.560Z,9.5
2019-05-02T04:19:54.697Z,9.5
2019-05-02T04:20:29.863Z,9.5
2019-05-02T04:21:05.106Z,9.5
2019-05-02T04:21:39.740Z,9.5
2019-05-02T04:22:14.693Z,9.5
2019-05-02T04:23:27.477Z,9.5
2019-05-02T04:24:34.158Z,9.5
2019-05-02T04:25:09.311Z,9.5
2019-05-02T04:25:44.435Z,9.5
2019-05-02T04:26:19.637Z,9.5
2019-05-02T04:26:56.216Z,9.5
2019-05-02T04:27:33.916Z,9.5
2019-05-02T04:28:05.735Z,9.5
2019-05-02T04:28:39.526Z,9.5
2019-05-02T04:29:14.121Z,9.5
2019-05-02T04:29:48.730Z,9.5
2019-05-02T04:30:23.353Z,9.5
2019-05-02T04:30:57.985Z,9.5
2019-05-02T04:31:33.726Z,9.5
2019-05-02T04:32:11.245Z,9.5
2019-05-02T04:32:43.050Z,9.5
2019-05-02T04:33:16.347Z,9.5
2019-05-02T04:34:25.560Z,9.6
2019-05-02T04:35:01.205Z,9.6
2019-05-02T04:35:36.893Z,9.6
2019-05-02T04:36:14.994Z,9.6
2019-05-02T04:36:59.351Z,9.6
2019-05-02T04:37:23.823Z,9.6
2019-05-02T04:38:02.219Z,9.6
2019-05-02T04:38:43.814Z,9.6
2019-05-02T04:39:12.459Z,9.6
2019-05-02T04:39:48.310Z,9.6
2019-05-02T04:41:34.280Z,9.6
2019-05-02T04:42:12.771Z,9.6
2019-05-02T04:42:44.186Z,9.7
2019-05-02T04:43:18.783Z,9.7
2019-05-02T04:44:29.623Z,9.7
2019-05-02T04:45:51.220Z,9.7
2019-05-02T04:46:18.753Z,9.7
2019-05-02T04:46:48.802Z,9.8
2019-05-02T04:47:23.639Z,9.8
2019-05-02T04:48:41.318Z,9.8
2019-05-02T04:49:11.610Z,9.8
2019-05-02T04:49:49.066Z,9.8
2019-05-02T04:50:25.062Z,9.8
2019-05-02T04:51:33.724Z,9.8
2019-05-02T04:52:11.709Z,9.8
2019-05-02T04:52:48.094Z,9.8
2019-05-02T04:53:58.787Z,9.8
2019-05-02T04:54:33.511Z,9.8
2019-05-02T04:55:19.639Z,9.8
2019-05-02T04:55:49.446Z,9.8
2019-05-02T04:56:21.512Z,9.8
2019-05-02T04:58:08.543Z,9.9
2019-05-02T04:58:43.085Z,9.9
2019-05-02T04:59:22.460Z,9.9
2019-05-02T05:01:02.538Z,10.0
2019-05-02T05:01:43.104Z,10.0
2019-05-02T05:02:53.066Z,10.0
2019-05-02T05:04:03.249Z,10.1
2019-05-02T05:04:39.535Z,10.1
2019-05-02T05:05:17.114Z,10.1
2019-05-02T05:05:48.177Z,10.1
2019-05-02T05:06:21.398Z,10.1
2019-05-02T05:08:07.684Z,10.2
2019-05-02T05:09:18.011Z,10.2
2019-05-02T05:11:04.945Z,10.2
2019-05-02T05:11:41.152Z,10.3
2019-05-02T05:12:17.600Z,10.3
2019-05-02T05:12:50.877Z,10.3
2019-05-02T05:14:38.999Z,10.3
2019-05-02T05:15:13.290Z,10.3
2019-05-02T05:15:49.384Z,10.3
2019-05-02T05:16:55.565Z,10.3
2019-05-02T05:18:09.497Z,10.4
2019-05-02T05:18:38.982Z,10.4
2019-05-02T05:19:14.087Z,10.4
2019-05-02T05:19:49.773Z,10.4
2019-05-02T05:22:11.936Z,10.5
2019-05-02T05:22:45.885Z,10.5
2019-05-02T05:23:21.602Z,10.5
2019-05-02T05:25:06.891Z,10.5
2019-05-02T05:25:39.997Z,10.6
2019-05-02T05:26:17.463Z,10.6
2019-05-02T05:26:51.796Z,10.6
2019-05-02T05:28:06.002Z,10.6
2019-05-02T05:28:40.387Z,10.6
2019-05-02T05:29:18.449Z,10.7
2019-05-02T05:30:23.610Z,10.7
2019-05-02T05:31:32.798Z,10.7
2019-05-02T05:32:09.815Z,10.7
2019-05-02T05:32:42.570Z,10.7
2019-05-02T05:33:18.247Z,10.8
2019-05-02T05:35:08.825Z,10.8
2019-05-02T05:35:43.152Z,10.8
2019-05-02T05:36:19.589Z,10.9
2019-05-02T05:36:52.128Z,10.9
2019-05-02T05:38:01.308Z,10.9
2019-05-02T05:38:36.595Z,10.9
2019-05-02T05:39:48.594Z,11.0
2019-05-02T05:40:22.467Z,11.0
2019-05-02T05:41:33.636Z,11.0
2019-05-02T05:42:10.620Z,11.0
2019-05-02T05:42:47.600Z,11.1
2019-05-02T05:43:20.747Z,11.1
2019-05-02T05:45:09.541Z,11.1
2019-05-02T05:45:50.526Z,11.2
2019-05-02T05:46:17.791Z,11.2
2019-05-02T05:46:52.336Z,11.2
2019-05-02T05:48:02.725Z,11.2
2019-05-02T05:49:18.262Z,11.2
2019-05-02T05:49:52.133Z,11.2
2019-05-02T05:52:10.682Z,11.3
2019-05-02T05:52:47.249Z,11.4
2019-05-02T05:53:24.350Z,11.4
2019-05-02T05:55:07.983Z,11.5
2019-05-02T05:55:42.488Z,11.5
2019-05-02T05:56:17.984Z,11.5
2019-05-02T05:56:51.700Z,11.6
2019-05-02T05:58:12.057Z,11.6
2019-05-02T05:58:46.988Z,11.6
2019-05-02T05:59:14.797Z,11.6
2019-05-02T05:59:50.971Z,11.6
2019-05-02T06:01:01.738Z,11.7
2019-05-02T06:01:38.330Z,11.7
2019-05-02T06:02:14.418Z,11.7
2019-05-02T06:02:53.663Z,11.7
2019-05-02T06:03:20.188Z,11.7
2019-05-02T06:05:05.590Z,11.8
2019-05-02T06:05:42.237Z,11.8
2019-05-02T06:06:22.304Z,11.9
2019-05-02T06:06:53.913Z,11.9
2019-05-02T06:08:02.254Z,12.0
2019-05-02T06:08:37.899Z,12.0
2019-05-02T06:09:14.693Z,12.1
2019-05-02T06:09:48.285Z,12.1
2019-05-02T06:10:22.818Z,12.1
2019-05-02T06:10:57.367Z,12.2
2019-05-02T06:11:33.551Z,12.2
2019-05-02T06:12:09.692Z,12.2
2019-05-02T06:12:45.341Z,12.3
2019-05-02T06:13:19.954Z,12.3
2019-05-02T06:15:06.383Z,12.5
2019-05-02T06:15:41.529Z,12.5
2019-05-02T06:16:16.648Z,12.6
2019-05-02T06:16:53.220Z,12.6
2019-05-02T06:18:04.686Z,12.6
2019-05-02T06:18:41.707Z,12.7
2019-05-02T06:19:17.710Z,12.7
2019-05-02T06:19:53.422Z,12.8
2019-05-02T06:20:25.603Z,12.8
2019-05-02T06:21:39.917Z,12.9
2019-05-02T06:22:11.046Z,12.9
2019-05-02T06:22:45.658Z,12.9
2019-05-02T06:23:20.265Z,13.0
2019-05-02T06:24:33.824Z,13.0
2019-05-02T06:25:09.579Z,13.1
2019-05-02T06:25:42.972Z,13.1
2019-05-02T06:26:17.524Z,13.1
2019-05-02T06:26:52.077Z,13.2
2019-05-02T06:28:05.162Z,13.3
2019-05-02T06:28:41.504Z,13.3
2019-05-02T06:29:18.428Z,13.4
2019-05-02T06:29:51.053Z,13.4
2019-05-02T06:31:38.086Z,13.5
2019-05-02T06:32:13.973Z,13.5
2019-05-02T06:32:45.442Z,13.6
2019-05-02T06:33:21.622Z,13.6
2019-05-02T06:34:31.934Z,13.8
2019-05-02T06:35:07.526Z,13.8
2019-05-02T06:35:43.207Z,13.8
2019-05-02T06:36:53.982Z,13.9
2019-05-02T06:38:03.174Z,14.0
2019-05-02T06:38:38.837Z,14.0
2019-05-02T06:39:14.503Z,14.0
2019-05-02T06:39:50.139Z,14.1
2019-05-02T06:41:34.989Z,14.2
2019-05-02T06:45:41.913Z,14.4
2019-05-02T06:49:48.340Z,14.6
2019-05-02T06:50:24.802Z,14.6
2019-05-02T06:52:10.938Z,14.7
2019-05-02T06:52:45.532Z,14.7
2019-05-02T06:55:06.534Z,14.8
2019-05-02T06:56:51.440Z,14.9
2019-05-02T06:58:41.380Z,15.1
2019-05-02T06:59:12.997Z,15.1
2019-05-02T07:01:31.394Z,15.2
2019-05-02T07:02:07.043Z,15.1
2019-05-02T07:02:41.648Z,15.1
2019-05-02T07:03:16.266Z,15.2
2019-05-02T07:03:52.469Z,15.1
2019-05-02T07:05:02.690Z,15.2
2019-05-02T07:05:38.442Z,15.2
2019-05-02T07:06:58.031Z,15.3
2019-05-02T07:07:24.813Z,15.3
2019-05-02T07:08:32.031Z,15.3
2019-05-02T07:09:06.622Z,15.3
2019-05-02T07:09:41.816Z,15.4
2019-05-02T07:10:55.828Z,15.4
2019-05-02T07:12:05.256Z,15.5
2019-05-02T07:13:15.600Z,15.5
2019-05-02T07:13:50.121Z,15.5
2019-05-02T07:15:03.476Z,15.6
2019-05-02T07:15:38.405Z,15.6
2019-05-02T07:16:15.554Z,15.6
2019-05-02T07:16:49.572Z,15.7
2019-05-02T07:17:26.391Z,15.7
2019-05-02T07:18:31.700Z,15.7
2019-05-02T07:19:06.804Z,15.7
2019-05-02T07:19:41.921Z,15.7
2019-05-02T07:20:17.041Z,15.8
2019-05-02T07:20:52.689Z,15.8
2019-05-02T07:22:05.070Z,15.8
2019-05-02T07:22:40.908Z,15.9
2019-05-02T07:23:18.100Z,15.9
2019-05-02T07:23:53.455Z,15.9
2019-05-02T07:26:09.399Z,15.9
2019-05-02T07:26:44.359Z,15.9
2019-05-02T07:27:54.401Z,16.0
2019-05-02T07:29:05.119Z,16.0
2019-05-02T07:29:40.780Z,16.0
2019-05-02T07:30:16.427Z,16.0
2019-05-02T07:30:54.312Z,16.1
2019-05-02T07:32:36.308Z,16.1
2019-05-02T07:33:11.410Z,16.2
2019-05-02T07:34:23.788Z,16.2
2019-05-02T07:35:35.593Z,16.2
2019-05-02T07:36:11.247Z,16.2
2019-05-02T07:36:47.460Z,16.3
2019-05-02T07:37:22.551Z,16.3
2019-05-02T07:38:32.278Z,16.3
2019-05-02T07:39:07.405Z,16.3
2019-05-02T07:39:42.259Z,16.3
2019-05-02T07:40:17.030Z,16.3
2019-05-02T07:40:52.915Z,16.4
2019-05-02T07:42:05.734Z,16.4
2019-05-02T07:42:41.725Z,16.4
2019-05-02T07:43:20.913Z,16.4
2019-05-02T07:43:51.985Z,16.5
2019-05-02T07:45:33.814Z,16.5
2019-05-02T07:46:51.438Z,16.5
2019-05-02T07:47:18.672Z,16.5
2019-05-02T07:47:53.793Z,16.6
2019-05-02T07:49:41.796Z,16.6
2019-05-02T07:50:17.490Z,16.7
2019-05-02T07:50:52.476Z,16.7
2019-05-02T07:52:36.910Z,16.8
2019-05-02T07:53:14.262Z,16.8
2019-05-02T07:53:48.624Z,16.8
2019-05-02T07:54:24.657Z,16.8
2019-05-02T07:55:40.219Z,16.9
2019-05-02T07:56:12.360Z,16.9
2019-05-02T07:56:48.579Z,16.9
2019-05-02T07:57:20.047Z,16.9
2019-05-02T07:57:54.678Z,16.9
2019-05-02T07:59:03.878Z,16.9
2019-05-02T07:59:38.462Z,16.9
2019-05-02T08:00:13.074Z,16.9
2019-05-02T08:00:47.632Z,16.9
2019-05-02T08:01:22.245Z,16.9
2019-05-02T08:02:31.476Z,17.0
2019-05-02T08:03:07.102Z,17.0
2019-05-02T08:03:42.271Z,17.0
2019-05-02T08:04:17.890Z,17.0
2019-05-02T08:04:53.534Z,17.0
2019-05-02T08:06:40.024Z,17.1
2019-05-02T08:07:16.186Z,17.1
2019-05-02T08:07:47.620Z,17.1
2019-05-02T08:08:24.953Z,17.1
2019-05-02T08:09:31.962Z,17.2
2019-05-02T08:10:07.602Z,17.2
2019-05-02T08:10:43.278Z,17.2
2019-05-02T08:13:05.867Z,17.2
2019-05-02T08:13:42.010Z,17.3
2019-05-02T08:14:51.749Z,17.3
2019-05-02T08:15:26.882Z,17.3
2019-05-02T08:16:01.996Z,17.3
2019-05-02T08:17:52.957Z,17.3
2019-05-02T08:18:20.461Z,17.3
2019-05-02T08:18:55.043Z,17.3
2019-05-02T08:20:05.706Z,17.4
2019-05-02T08:20:39.895Z,17.4
2019-05-02T08:24:13.266Z,17.4
2019-05-02T08:25:24.583Z,17.4
2019-05-02T08:27:45.065Z,17.3
2019-05-02T08:31:51.526Z,17.4
2019-05-02T08:33:03.303Z,17.4
2019-05-02T08:33:39.601Z,17.4
2019-05-02T08:34:51.594Z,17.5
2019-05-02T08:35:27.968Z,17.5
2019-05-02T08:36:35.152Z,17.5
2019-05-02T08:37:46.431Z,17.6
2019-05-02T08:38:22.067Z,17.6
2019-05-02T08:39:33.704Z,17.7
2019-05-02T08:40:42.140Z,17.7
2019-05-02T08:41:19.870Z,17.7
2019-05-02T08:41:51.170Z,17.7
2019-05-02T08:42:27.642Z,17.7
2019-05-02T08:44:16.681Z,17.8
2019-05-02T08:49:34.259Z,17.8
2019-05-02T08:50:09.417Z,17.9
2019-05-02T08:55:26.023Z,18.1
2019-05-02T08:56:02.339Z,18.1
2019-05-02T08:58:20.105Z,18.2
2019-05-02T08:59:32.435Z,18.2
2019-05-02T09:00:46.926Z,18.1
2019-05-02T09:04:58.165Z,18.2
2019-05-02T09:06:05.761Z,18.3
2019-05-02T09:14:49.435Z,18.4
2019-05-02T09:19:34.919Z,18.4
2019-05-02T09:29:05.213Z,18.7
2019-05-02T09:33:06.439Z,18.7
2019-05-02T09:34:16.998Z,18.7
2019-05-02T09:34:51.691Z,18.7
2019-05-02T09:35:24.645Z,18.7
2019-05-02T09:37:09.516Z,18.7
2019-05-02T09:37:44.639Z,18.7
2019-05-02T09:38:19.751Z,18.7
2019-05-02T09:38:57.430Z,18.7
2019-05-02T09:40:06.740Z,18.8
2019-05-02T09:40:42.572Z,18.8
2019-05-02T09:41:19.309Z,18.8
2019-05-02T09:41:53.692Z,18.8
2019-05-02T09:43:04.843Z,18.9
2019-05-02T09:44:18.545Z,18.9
2019-05-02T09:44:52.658Z,18.9
2019-05-02T09:45:22.941Z,19.0
2019-05-02T09:45:57.956Z,19.0
2019-05-02T09:46:33.617Z,19.1
2019-05-02T09:47:08.793Z,19.1
2019-05-02T09:47:55.725Z,19.1
2019-05-02T09:48:22.537Z,19.1
2019-05-02T09:48:56.985Z,19.1
2019-05-02T09:49:28.741Z,19.1
2019-05-02T09:50:03.330Z,19.1
2019-05-02T09:50:38.439Z,19.1
2019-05-02T09:51:17.297Z,19.1
2019-05-02T09:51:50.248Z,19.1
2019-05-02T09:52:22.247Z,19.1
2019-05-02T09:52:56.389Z,19.1
2019-05-02T09:54:06.463Z,19.1
2019-05-02T09:55:14.671Z,19.1
2019-05-02T09:55:52.165Z,19.2
2019-05-02T09:56:24.948Z,19.2
2019-05-02T09:57:36.228Z,19.2
2019-05-02T09:58:18.885Z,19.2
2019-05-02T09:58:49.334Z,19.2
2019-05-02T09:59:29.414Z,19.1
2019-05-02T09:59:58.870Z,19.2
2019-05-02T10:00:36.112Z,19.2
2019-05-02T10:01:11.666Z,19.2
2019-05-02T10:02:21.950Z,19.2
2019-05-02T10:02:56.602Z,19.3
2019-05-02T10:04:43.864Z,19.3
2019-05-02T10:05:16.082Z,19.3
2019-05-02T10:05:52.289Z,19.3
2019-05-02T10:06:25.277Z,19.3
2019-05-02T10:07:34.471Z,19.4
2019-05-02T10:08:13.698Z,19.4
2019-05-02T10:08:46.699Z,19.4
2019-05-02T10:09:23.896Z,19.4
2019-05-02T10:09:57.601Z,19.4
2019-05-02T10:10:32.490Z,19.4
2019-05-02T10:11:07.829Z,19.4
2019-05-02T10:11:43.501Z,19.4
2019-05-02T10:12:19.658Z,19.4
2019-05-02T10:12:55.333Z,19.5
2019-05-02T10:14:05.565Z,19.5
2019-05-02T10:14:42.106Z,19.5
2019-05-02T10:15:15.306Z,19.5
2019-05-02T10:15:52.467Z,19.5
2019-05-02T10:16:27.258Z,19.5
2019-05-02T10:17:37.421Z,19.6
2019-05-02T10:18:14.353Z,19.6
2019-05-02T10:18:47.672Z,19.6
2019-05-02T10:19:25.380Z,19.6
2019-05-02T10:20:36.360Z,19.6
2019-05-02T10:21:46.832Z,19.7
2019-05-02T10:22:22.434Z,19.7
2019-05-02T10:22:55.122Z,19.7
2019-05-02T10:24:04.318Z,19.7
2019-05-02T10:24:38.898Z,19.7
2019-05-02T10:25:13.497Z,19.6
2019-05-02T10:25:49.189Z,19.6
2019-05-02T10:26:25.009Z,19.5
2019-05-02T10:27:34.047Z,19.5
2019-05-02T10:28:10.193Z,19.6
2019-05-02T10:28:49.261Z,19.6
2019-05-02T10:29:57.216Z,19.6
2019-05-02T10:30:35.648Z,19.6
2019-05-02T10:31:08.989Z,19.6
2019-05-02T10:31:45.173Z,19.6
2019-05-02T10:32:22.629Z,19.6
2019-05-02T10:32:57.391Z,19.6
2019-05-02T10:33:37.427Z,19.7
2019-05-02T10:34:08.378Z,19.7
2019-05-02T10:34:47.242Z,19.7
2019-05-02T10:35:18.011Z,19.7
2019-05-02T10:35:52.726Z,19.7
2019-05-02T10:36:27.749Z,19.7
2019-05-02T10:37:39.649Z,19.5
2019-05-02T10:38:15.033Z,19.5
2019-05-02T10:38:48.899Z,19.5
2019-05-02T10:39:23.550Z,19.4
2019-05-02T10:39:59.228Z,19.5
2019-05-02T10:40:33.635Z,19.5
2019-05-02T10:41:08.273Z,19.5
2019-05-02T10:41:43.733Z,19.5
2019-05-02T10:42:17.454Z,19.5
2019-05-02T10:42:53.268Z,19.6
2019-05-02T10:43:28.832Z,19.6
2019-05-02T10:44:03.357Z,19.6
2019-05-02T10:44:38.502Z,19.7
2019-05-02T10:45:16.552Z,19.7
2019-05-02T10:45:52.640Z,19.8
2019-05-02T10:46:27.707Z,19.8
2019-05-02T10:47:36.345Z,19.8
2019-05-02T10:48:22.550Z,19.8
2019-05-02T10:48:47.005Z,19.8
2019-05-02T10:49:22.718Z,19.8
2019-05-02T10:49:58.819Z,19.8
2019-05-02T10:50:34.459Z,19.8
2019-05-02T10:51:11.662Z,19.9
2019-05-02T10:51:49.138Z,19.9
2019-05-02T10:52:28.873Z,19.9
2019-05-02T10:52:55.497Z,19.9
2019-05-02T10:54:05.465Z,19.9
2019-05-02T10:55:15.478Z,20.0
2019-05-02T10:55:52.245Z,20.0
2019-05-02T10:56:26.782Z,20.1
2019-05-02T10:57:02.280Z,20.1
2019-05-02T10:58:12.385Z,20.1
2019-05-02T10:58:46.246Z,20.1
2019-05-02T10:59:21.975Z,20.2
2019-05-02T10:59:56.501Z,20.2
2019-05-02T11:00:32.532Z,20.2
2019-05-02T11:01:42.937Z,20.2